Terminal Aerodrome Forecast
Issued by NWS

Current Version | Previous Version | Text Only | Print | Product List | Glossary On
Versions: 1 2 3 4 5 6 7 8 9 10 11 12 13
000
FTUS42 KMLB 251735
TAFSFB
TAF
KSFB 251735Z 2518/2618 11013KT P6SM SCT040 BKN250
     FM252300 12009KT P6SM FEW035 SCT250
     FM260300 09003KT P6SM FEW250
     FM261400 13010KT P6SM FEW020 FEW250=

USA.gov is the U.S. government's official web portal to all federal, state and local government web resources and services.